sensor_id;sensor_type;location;lat;lon;timestamp;P1;durP1;ratioP1;P2;durP2;ratioP2
61473;SDS011;53694;49.784;30.150;2024-01-30T00:00:43;17.54;;;10.16;;
61473;SDS011;53694;49.784;30.150;2024-01-30T00:01:44;15.81;;;10.24;;
61473;SDS011;53694;49.784;30.150;2024-01-30T00:02:46;17.37;;;10.62;;
61473;SDS011;53694;49.784;30.150;2024-01-30T00:03:47;17.35;;;10.91;;
61473;SDS011;53694;49.784;30.150;2024-01-30T00:04:49;14.97;;;9.15;;
61473;SDS011;53694;49.784;30.150;2024-01-30T00:05:50;14.31;;;7.54;;
61473;SDS011;53694;49.784;30.150;2024-01-30T00:06:52;12.45;;;7.21;;
61473;SDS011;53694;49.784;30.150;2024-01-30T00:07:53;14.41;;;8.27;;
61473;SDS011;53694;49.784;30.150;2024-01-30T00:08:55;12.47;;;7.59;;
61473;SDS011;53694;49.784;30.150;2024-01-30T00:09:57;14.58;;;7.91;;
61473;SDS011;53694;49.784;30.150;2024-01-30T00:10:59;13.63;;;7.59;;
61473;SDS011;53694;49.784;30.150;2024-01-30T00:12:00;13.96;;;7.69;;
61473;SDS011;53694;49.784;30.150;2024-01-30T00:13:02;13.94;;;7.78;;
61473;SDS011;53694;49.784;30.150;2024-01-30T00:14:04;12.89;;;8.55;;
61473;SDS011;53694;49.784;30.150;2024-01-30T00:15:06;14.09;;;8.20;;
61473;SDS011;53694;49.784;30.150;2024-01-30T00:16:08;13.23;;;8.37;;
61473;SDS011;53694;49.784;30.150;2024-01-30T00:17:12;14.55;;;9.09;;
61473;SDS011;53694;49.784;30.150;2024-01-30T00:18:13;13.23;;;8.92;;
61473;SDS011;53694;49.784;30.150;2024-01-30T00:19:15;15.62;;;9.19;;
61473;SDS011;53694;49.784;30.150;2024-01-30T00:20:17;16.39;;;9.99;;
61473;SDS011;53694;49.784;30.150;2024-01-30T00:21:19;17.62;;;10.33;;
61473;SDS011;53694;49.784;30.150;2024-01-30T00:22:21;19.08;;;12.33;;
61473;SDS011;53694;49.784;30.150;2024-01-30T00:23:23;20.18;;;13.26;;
61473;SDS011;53694;49.784;30.150;2024-01-30T00:24:24;25.33;;;16.60;;
61473;SDS011;53694;49.784;30.150;2024-01-30T00:25:28;35.89;;;24.15;;
61473;SDS011;53694;49.784;30.150;2024-01-30T00:26:29;39.46;;;26.35;;
61473;SDS011;53694;49.784;30.150;2024-01-30T00:27:31;36.59;;;24.64;;
61473;SDS011;53694;49.784;30.150;2024-01-30T00:28:33;31.57;;;21.21;;
61473;SDS011;53694;49.784;30.150;2024-01-30T00:29:34;32.04;;;21.26;;
61473;SDS011;53694;49.784;30.150;2024-01-30T00:30:36;34.89;;;22.35;;
61473;SDS011;53694;49.784;30.150;2024-01-30T00:31:37;31.09;;;20.31;;
61473;SDS011;53694;49.784;30.150;2024-01-30T00:32:39;27.79;;;16.67;;
61473;SDS011;53694;49.784;30.150;2024-01-30T00:33:41;26.01;;;14.59;;
61473;SDS011;53694;49.784;30.150;2024-01-30T00:34:43;20.42;;;12.58;;
61473;SDS011;53694;49.784;30.150;2024-01-30T00:35:44;19.10;;;11.01;;
61473;SDS011;53694;49.784;30.150;2024-01-30T00:36:46;18.49;;;10.42;;
61473;SDS011;53694;49.784;30.150;2024-01-30T00:37:48;18.82;;;10.74;;
61473;SDS011;53694;49.784;30.150;2024-01-30T00:38:49;14.20;;;8.94;;
61473;SDS011;53694;49.784;30.150;2024-01-30T00:39:51;21.01;;;12.56;;
61473;SDS011;53694;49.784;30.150;2024-01-30T00:40:53;20.91;;;11.91;;
61473;SDS011;53694;49.784;30.150;2024-01-30T00:41:54;35.93;;;21.76;;
61473;SDS011;53694;49.784;30.150;2024-01-30T00:42:56;26.84;;;15.05;;
61473;SDS011;53694;49.784;30.150;2024-01-30T00:43:57;20.21;;;12.51;;
61473;SDS011;53694;49.784;30.150;2024-01-30T00:44:59;21.76;;;12.54;;
61473;SDS011;53694;49.784;30.150;2024-01-30T00:46:00;19.24;;;12.41;;
61473;SDS011;53694;49.784;30.150;2024-01-30T00:47:02;21.75;;;13.23;;
61473;SDS011;53694;49.784;30.150;2024-01-30T00:48:04;23.64;;;14.31;;
61473;SDS011;53694;49.784;30.150;2024-01-30T00:49:06;24.16;;;14.24;;
61473;SDS011;53694;49.784;30.150;2024-01-30T00:50:08;26.23;;;15.31;;
61473;SDS011;53694;49.784;30.150;2024-01-30T00:51:10;26.65;;;15.91;;
61473;SDS011;53694;49.784;30.150;2024-01-30T00:52:12;27.76;;;15.58;;
61473;SDS011;53694;49.784;30.150;2024-01-30T00:53:13;25.73;;;16.25;;
61473;SDS011;53694;49.784;30.150;2024-01-30T00:54:15;23.54;;;15.01;;
61473;SDS011;53694;49.784;30.150;2024-01-30T00:55:17;28.47;;;16.26;;
61473;SDS011;53694;49.784;30.150;2024-01-30T00:56:19;30.01;;;16.05;;
61473;SDS011;53694;49.784;30.150;2024-01-30T00:57:20;22.23;;;14.74;;
61473;SDS011;53694;49.784;30.150;2024-01-30T00:58:22;19.54;;;11.41;;
61473;SDS011;53694;49.784;30.150;2024-01-30T00:59:23;21.11;;;11.11;;
61473;SDS011;53694;49.784;30.150;2024-01-30T01:00:25;18.34;;;10.09;;
61473;SDS011;53694;49.784;30.150;2024-01-30T01:01:27;17.59;;;9.95;;
61473;SDS011;53694;49.784;30.150;2024-01-30T01:02:28;19.34;;;10.72;;
61473;SDS011;53694;49.784;30.150;2024-01-30T01:03:30;22.68;;;12.31;;
61473;SDS011;53694;49.784;30.150;2024-01-30T01:04:31;24.46;;;13.50;;
61473;SDS011;53694;49.784;30.150;2024-01-30T01:05:33;26.94;;;14.52;;
61473;SDS011;53694;49.784;30.150;2024-01-30T01:06:35;24.72;;;14.56;;
61473;SDS011;53694;49.784;30.150;2024-01-30T01:07:36;21.76;;;13.01;;
61473;SDS011;53694;49.784;30.150;2024-01-30T01:08:37;23.04;;;13.49;;
61473;SDS011;53694;49.784;30.150;2024-01-30T01:09:39;25.37;;;13.78;;
61473;SDS011;53694;49.784;30.150;2024-01-30T01:10:41;30.08;;;15.46;;
61473;SDS011;53694;49.784;30.150;2024-01-30T01:11:42;26.39;;;15.19;;
61473;SDS011;53694;49.784;30.150;2024-01-30T01:12:44;24.10;;;14.81;;
61473;SDS011;53694;49.784;30.150;2024-01-30T01:13:47;20.46;;;12.77;;
61473;SDS011;53694;49.784;30.150;2024-01-30T01:14:49;19.16;;;11.76;;
61473;SDS011;53694;49.784;30.150;2024-01-30T01:15:50;17.66;;;11.49;;
61473;SDS011;53694;49.784;30.150;2024-01-30T01:16:52;18.27;;;11.79;;
61473;SDS011;53694;49.784;30.150;2024-01-30T01:17:53;18.11;;;11.81;;
61473;SDS011;53694;49.784;30.150;2024-01-30T01:18:55;21.44;;;12.64;;
61473;SDS011;53694;49.784;30.150;2024-01-30T01:19:57;20.84;;;12.73;;
61473;SDS011;53694;49.784;30.150;2024-01-30T01:20:59;18.61;;;12.20;;
61473;SDS011;53694;49.784;30.150;2024-01-30T01:22:00;19.87;;;13.06;;
61473;SDS011;53694;49.784;30.150;2024-01-30T01:23:02;16.50;;;10.14;;
61473;SDS011;53694;49.784;30.150;2024-01-30T01:24:04;18.21;;;9.67;;
61473;SDS011;53694;49.784;30.150;2024-01-30T01:25:06;16.88;;;8.92;;
61473;SDS011;53694;49.784;30.150;2024-01-30T01:26:08;16.72;;;9.11;;
61473;SDS011;53694;49.784;30.150;2024-01-30T01:27:09;18.26;;;9.81;;
61473;SDS011;53694;49.784;30.150;2024-01-30T01:28:11;16.91;;;8.99;;
61473;SDS011;53694;49.784;30.150;2024-01-30T01:29:12;14.60;;;7.94;;
61473;SDS011;53694;49.784;30.150;2024-01-30T01:30:14;14.23;;;8.89;;
61473;SDS011;53694;49.784;30.150;2024-01-30T01:31:16;16.89;;;10.01;;
61473;SDS011;53694;49.784;30.150;2024-01-30T01:32:17;16.58;;;10.21;;
61473;SDS011;53694;49.784;30.150;2024-01-30T01:33:19;19.10;;;11.85;;
61473;SDS011;53694;49.784;30.150;2024-01-30T01:34:21;17.99;;;10.66;;
61473;SDS011;53694;49.784;30.150;2024-01-30T01:35:23;20.34;;;12.30;;
61473;SDS011;53694;49.784;30.150;2024-01-30T01:36:25;20.00;;;12.35;;
61473;SDS011;53694;49.784;30.150;2024-01-30T01:37:27;19.85;;;12.22;;
61473;SDS011;53694;49.784;30.150;2024-01-30T01:38:28;23.55;;;12.60;;
61473;SDS011;53694;49.784;30.150;2024-01-30T01:39:30;24.52;;;13.14;;
61473;SDS011;53694;49.784;30.150;2024-01-30T01:40:33;20.07;;;12.39;;
61473;SDS011;53694;49.784;30.150;2024-01-30T01:41:34;22.56;;;12.41;;
61473;SDS011;53694;49.784;30.150;2024-01-30T01:42:36;25.05;;;14.75;;
61473;SDS011;53694;49.784;30.150;2024-01-30T01:43:37;19.72;;;11.76;;
61473;SDS011;53694;49.784;30.150;2024-01-30T01:44:39;20.21;;;12.28;;
61473;SDS011;53694;49.784;30.150;2024-01-30T01:45:41;19.81;;;12.00;;
61473;SDS011;53694;49.784;30.150;2024-01-30T01:46:42;19.99;;;11.86;;
61473;SDS011;53694;49.784;30.150;2024-01-30T01:47:44;15.61;;;9.97;;
61473;SDS011;53694;49.784;30.150;2024-01-30T01:48:49;16.66;;;10.21;;
61473;SDS011;53694;49.784;30.150;2024-01-30T01:49:51;16.40;;;10.06;;
61473;SDS011;53694;49.784;30.150;2024-01-30T01:50:53;17.15;;;10.45;;
61473;SDS011;53694;49.784;30.150;2024-01-30T01:51:55;18.12;;;9.54;;
61473;SDS011;53694;49.784;30.150;2024-01-30T01:52:57;14.43;;;8.27;;
61473;SDS011;53694;49.784;30.150;2024-01-30T01:54:00;12.63;;;7.64;;
61473;SDS011;53694;49.784;30.150;2024-01-30T01:55:04;10.84;;;6.82;;
61473;SDS011;53694;49.784;30.150;2024-01-30T01:56:07;13.14;;;7.26;;
61473;SDS011;53694;49.784;30.150;2024-01-30T01:57:09;13.90;;;7.81;;
61473;SDS011;53694;49.784;30.150;2024-01-30T01:58:11;16.12;;;7.91;;
61473;SDS011;53694;49.784;30.150;2024-01-30T01:59:13;16.05;;;9.17;;
61473;SDS011;53694;49.784;30.150;2024-01-30T02:00:16;15.32;;;8.13;;
61473;SDS011;53694;49.784;30.150;2024-01-30T02:01:19;19.23;;;11.11;;
61473;SDS011;53694;49.784;30.150;2024-01-30T02:02:21;21.55;;;12.49;;
61473;SDS011;53694;49.784;30.150;2024-01-30T02:03:25;27.08;;;14.58;;
61473;SDS011;53694;49.784;30.150;2024-01-30T02:04:27;19.73;;;11.56;;
61473;SDS011;53694;49.784;30.150;2024-01-30T02:05:29;22.07;;;12.06;;
61473;SDS011;53694;49.784;30.150;2024-01-30T02:06:32;20.18;;;11.73;;
61473;SDS011;53694;49.784;30.150;2024-01-30T02:07:35;17.01;;;10.99;;
61473;SDS011;53694;49.784;30.150;2024-01-30T02:08:37;21.89;;;12.59;;
61473;SDS011;53694;49.784;30.150;2024-01-30T02:09:39;17.11;;;10.61;;
61473;SDS011;53694;49.784;30.150;2024-01-30T02:10:40;19.33;;;11.79;;
61473;SDS011;53694;49.784;30.150;2024-01-30T02:11:42;18.67;;;10.71;;
61473;SDS011;53694;49.784;30.150;2024-01-30T02:12:44;18.86;;;11.54;;
61473;SDS011;53694;49.784;30.150;2024-01-30T02:13:46;23.37;;;14.23;;
61473;SDS011;53694;49.784;30.150;2024-01-30T02:14:48;32.91;;;16.83;;
61473;SDS011;53694;49.784;30.150;2024-01-30T02:15:50;39.87;;;19.66;;
61473;SDS011;53694;49.784;30.150;2024-01-30T02:16:53;20.41;;;12.16;;
61473;SDS011;53694;49.784;30.150;2024-01-30T02:17:55;17.49;;;10.75;;
61473;SDS011;53694;49.784;30.150;2024-01-30T02:18:57;16.36;;;9.83;;
61473;SDS011;53694;49.784;30.150;2024-01-30T02:19:59;14.93;;;8.12;;
61473;SDS011;53694;49.784;30.150;2024-01-30T02:21:04;15.01;;;8.28;;
61473;SDS011;53694;49.784;30.150;2024-01-30T02:22:06;13.51;;;8.19;;
61473;SDS011;53694;49.784;30.150;2024-01-30T02:23:09;13.87;;;7.61;;
61473;SDS011;53694;49.784;30.150;2024-01-30T02:24:11;11.36;;;7.30;;
61473;SDS011;53694;49.784;30.150;2024-01-30T02:25:13;13.21;;;7.82;;
61473;SDS011;53694;49.784;30.150;2024-01-30T02:26:15;14.76;;;8.04;;
61473;SDS011;53694;49.784;30.150;2024-01-30T02:27:16;15.11;;;9.21;;
61473;SDS011;53694;49.784;30.150;2024-01-30T02:28:18;16.09;;;9.50;;
61473;SDS011;53694;49.784;30.150;2024-01-30T02:29:21;15.47;;;9.34;;
61473;SDS011;53694;49.784;30.150;2024-01-30T02:30:23;17.72;;;9.99;;
61473;SDS011;53694;49.784;30.150;2024-01-30T02:31:25;22.09;;;12.51;;
61473;SDS011;53694;49.784;30.150;2024-01-30T02:32:27;19.11;;;10.96;;
61473;SDS011;53694;49.784;30.150;2024-01-30T02:33:28;15.06;;;9.71;;
61473;SDS011;53694;49.784;30.150;2024-01-30T02:34:30;19.00;;;10.43;;
61473;SDS011;53694;49.784;30.150;2024-01-30T02:35:32;17.31;;;9.95;;
61473;SDS011;53694;49.784;30.150;2024-01-30T02:36:33;15.53;;;10.13;;
61473;SDS011;53694;49.784;30.150;2024-01-30T02:37:35;15.21;;;10.09;;
61473;SDS011;53694;49.784;30.150;2024-01-30T02:38:36;17.25;;;10.27;;
61473;SDS011;53694;49.784;30.150;2024-01-30T02:39:38;17.84;;;10.63;;
61473;SDS011;53694;49.784;30.150;2024-01-30T02:40:40;17.01;;;10.45;;
61473;SDS011;53694;49.784;30.150;2024-01-30T02:41:41;14.82;;;9.97;;
61473;SDS011;53694;49.784;30.150;2024-01-30T02:42:43;20.61;;;10.95;;
61473;SDS011;53694;49.784;30.150;2024-01-30T02:43:44;26.05;;;14.81;;
61473;SDS011;53694;49.784;30.150;2024-01-30T02:44:46;17.94;;;11.48;;
61473;SDS011;53694;49.784;30.150;2024-01-30T02:45:48;15.27;;;9.38;;
61473;SDS011;53694;49.784;30.150;2024-01-30T02:46:50;13.44;;;8.04;;
61473;SDS011;53694;49.784;30.150;2024-01-30T02:47:51;11.14;;;7.25;;
61473;SDS011;53694;49.784;30.150;2024-01-30T02:48:53;12.94;;;6.88;;
61473;SDS011;53694;49.784;30.150;2024-01-30T02:49:55;11.30;;;6.99;;
61473;SDS011;53694;49.784;30.150;2024-01-30T02:50:56;10.76;;;6.65;;
61473;SDS011;53694;49.784;30.150;2024-01-30T02:51:58;10.95;;;6.82;;
61473;SDS011;53694;49.784;30.150;2024-01-30T02:52:59;12.72;;;6.79;;
61473;SDS011;53694;49.784;30.150;2024-01-30T02:54:01;16.29;;;8.07;;
61473;SDS011;53694;49.784;30.150;2024-01-30T02:55:03;13.37;;;7.81;;
61473;SDS011;53694;49.784;30.150;2024-01-30T02:56:05;12.45;;;7.81;;
61473;SDS011;53694;49.784;30.150;2024-01-30T02:57:07;14.74;;;9.03;;
61473;SDS011;53694;49.784;30.150;2024-01-30T02:58:09;15.36;;;8.28;;
61473;SDS011;53694;49.784;30.150;2024-01-30T02:59:10;13.66;;;8.64;;
61473;SDS011;53694;49.784;30.150;2024-01-30T03:00:12;30.96;;;18.59;;
61473;SDS011;53694;49.784;30.150;2024-01-30T03:01:14;20.09;;;11.31;;
61473;SDS011;53694;49.784;30.150;2024-01-30T03:02:16;18.37;;;10.64;;
61473;SDS011;53694;49.784;30.150;2024-01-30T03:03:18;18.10;;;11.97;;
61473;SDS011;53694;49.784;30.150;2024-01-30T03:04:19;18.47;;;11.51;;
61473;SDS011;53694;49.784;30.150;2024-01-30T03:05:21;17.84;;;11.22;;
61473;SDS011;53694;49.784;30.150;2024-01-30T03:06:23;22.65;;;13.27;;
61473;SDS011;53694;49.784;30.150;2024-01-30T03:07:24;25.37;;;13.84;;
61473;SDS011;53694;49.784;30.150;2024-01-30T03:08:26;23.55;;;13.30;;
61473;SDS011;53694;49.784;30.150;2024-01-30T03:09:27;20.73;;;11.71;;
61473;SDS011;53694;49.784;30.150;2024-01-30T03:10:29;20.01;;;11.45;;
61473;SDS011;53694;49.784;30.150;2024-01-30T03:11:30;19.52;;;10.23;;
61473;SDS011;53694;49.784;30.150;2024-01-30T03:12:32;23.92;;;12.21;;
61473;SDS011;53694;49.784;30.150;2024-01-30T03:13:34;18.73;;;10.18;;
61473;SDS011;53694;49.784;30.150;2024-01-30T03:14:35;14.76;;;9.76;;
61473;SDS011;53694;49.784;30.150;2024-01-30T03:15:37;14.03;;;8.83;;
61473;SDS011;53694;49.784;30.150;2024-01-30T03:16:39;16.72;;;10.68;;
61473;SDS011;53694;49.784;30.150;2024-01-30T03:17:41;15.85;;;10.12;;
61473;SDS011;53694;49.784;30.150;2024-01-30T03:18:42;18.92;;;10.36;;
61473;SDS011;53694;49.784;30.150;2024-01-30T03:19:44;15.91;;;9.69;;
61473;SDS011;53694;49.784;30.150;2024-01-30T03:20:45;17.26;;;10.12;;
61473;SDS011;53694;49.784;30.150;2024-01-30T03:21:47;16.61;;;9.48;;
61473;SDS011;53694;49.784;30.150;2024-01-30T03:22:48;15.15;;;9.26;;
61473;SDS011;53694;49.784;30.150;2024-01-30T03:23:50;14.03;;;8.89;;
61473;SDS011;53694;49.784;30.150;2024-01-30T03:24:51;17.36;;;9.57;;
61473;SDS011;53694;49.784;30.150;2024-01-30T03:25:53;14.94;;;9.33;;
61473;SDS011;53694;49.784;30.150;2024-01-30T03:26:54;15.31;;;9.40;;
61473;SDS011;53694;49.784;30.150;2024-01-30T03:27:56;17.44;;;10.43;;
61473;SDS011;53694;49.784;30.150;2024-01-30T03:28:57;14.87;;;8.63;;
61473;SDS011;53694;49.784;30.150;2024-01-30T03:29:59;12.19;;;7.27;;
61473;SDS011;53694;49.784;30.150;2024-01-30T03:31:01;11.64;;;6.99;;
61473;SDS011;53694;49.784;30.150;2024-01-30T03:32:03;12.31;;;6.27;;
61473;SDS011;53694;49.784;30.150;2024-01-30T03:33:05;10.33;;;6.57;;
61473;SDS011;53694;49.784;30.150;2024-01-30T03:34:06;11.05;;;6.64;;
61473;SDS011;53694;49.784;30.150;2024-01-30T03:35:08;8.68;;;5.79;;
61473;SDS011;53694;49.784;30.150;2024-01-30T03:36:11;10.73;;;6.54;;
61473;SDS011;53694;49.784;30.150;2024-01-30T03:37:12;12.28;;;6.66;;
61473;SDS011;53694;49.784;30.150;2024-01-30T03:38:14;10.95;;;6.58;;
61473;SDS011;53694;49.784;30.150;2024-01-30T03:39:16;11.41;;;7.04;;
61473;SDS011;53694;49.784;30.150;2024-01-30T03:40:18;12.99;;;7.65;;
61473;SDS011;53694;49.784;30.150;2024-01-30T03:41:20;13.13;;;7.97;;
61473;SDS011;53694;49.784;30.150;2024-01-30T03:42:22;14.34;;;8.48;;
61473;SDS011;53694;49.784;30.150;2024-01-30T03:43:23;17.54;;;8.84;;
61473;SDS011;53694;49.784;30.150;2024-01-30T03:44:25;14.26;;;8.59;;
61473;SDS011;53694;49.784;30.150;2024-01-30T03:45:26;15.46;;;8.73;;
61473;SDS011;53694;49.784;30.150;2024-01-30T03:46:28;17.65;;;9.35;;
61473;SDS011;53694;49.784;30.150;2024-01-30T03:47:30;15.29;;;9.95;;
61473;SDS011;53694;49.784;30.150;2024-01-30T03:48:31;16.13;;;9.68;;
61473;SDS011;53694;49.784;30.150;2024-01-30T03:49:33;16.54;;;9.40;;
61473;SDS011;53694;49.784;30.150;2024-01-30T03:50:35;16.31;;;9.96;;
61473;SDS011;53694;49.784;30.150;2024-01-30T03:51:36;15.36;;;9.24;;
61473;SDS011;53694;49.784;30.150;2024-01-30T03:52:38;12.14;;;7.46;;
61473;SDS011;53694;49.784;30.150;2024-01-30T03:53:40;13.51;;;7.25;;
61473;SDS011;53694;49.784;30.150;2024-01-30T03:54:42;10.27;;;6.37;;
61473;SDS011;53694;49.784;30.150;2024-01-30T03:55:44;12.05;;;7.02;;
61473;SDS011;53694;49.784;30.150;2024-01-30T03:56:46;10.87;;;6.50;;
61473;SDS011;53694;49.784;30.150;2024-01-30T03:57:48;13.35;;;6.91;;
61473;SDS011;53694;49.784;30.150;2024-01-30T03:58:49;11.11;;;7.09;;
61473;SDS011;53694;49.784;30.150;2024-01-30T03:59:51;11.24;;;6.90;;
61473;SDS011;53694;49.784;30.150;2024-01-30T04:00:52;13.78;;;7.51;;
61473;SDS011;53694;49.784;30.150;2024-01-30T04:01:54;15.51;;;8.01;;
61473;SDS011;53694;49.784;30.150;2024-01-30T04:02:56;16.61;;;9.47;;
61473;SDS011;53694;49.784;30.150;2024-01-30T04:03:57;17.91;;;10.39;;
61473;SDS011;53694;49.784;30.150;2024-01-30T04:04:59;17.63;;;9.46;;
61473;SDS011;53694;49.784;30.150;2024-01-30T04:06:01;16.43;;;9.77;;
61473;SDS011;53694;49.784;30.150;2024-01-30T04:07:03;17.18;;;10.20;;
61473;SDS011;53694;49.784;30.150;2024-01-30T04:08:05;16.30;;;9.95;;
61473;SDS011;53694;49.784;30.150;2024-01-30T04:09:07;17.38;;;10.64;;
61473;SDS011;53694;49.784;30.150;2024-01-30T04:10:09;18.89;;;11.25;;
61473;SDS011;53694;49.784;30.150;2024-01-30T04:11:11;20.47;;;11.61;;
61473;SDS011;53694;49.784;30.150;2024-01-30T04:12:12;17.46;;;9.19;;
61473;SDS011;53694;49.784;30.150;2024-01-30T04:13:14;14.14;;;8.35;;
61473;SDS011;53694;49.784;30.150;2024-01-30T04:14:16;13.73;;;8.16;;
61473;SDS011;53694;49.784;30.150;2024-01-30T04:15:17;14.18;;;8.41;;
61473;SDS011;53694;49.784;30.150;2024-01-30T04:16:21;10.89;;;7.09;;
61473;SDS011;53694;49.784;30.150;2024-01-30T04:17:23;14.18;;;7.14;;
61473;SDS011;53694;49.784;30.150;2024-01-30T04:18:24;12.03;;;6.16;;
61473;SDS011;53694;49.784;30.150;2024-01-30T04:19:26;10.79;;;6.63;;
61473;SDS011;53694;49.784;30.150;2024-01-30T04:20:29;13.49;;;7.22;;
61473;SDS011;53694;49.784;30.150;2024-01-30T04:21:31;12.95;;;7.42;;
61473;SDS011;53694;49.784;30.150;2024-01-30T04:22:32;14.93;;;7.93;;
61473;SDS011;53694;49.784;30.150;2024-01-30T04:23:34;13.01;;;8.06;;
61473;SDS011;53694;49.784;30.150;2024-01-30T04:24:36;15.39;;;8.74;;
61473;SDS011;53694;49.784;30.150;2024-01-30T04:25:38;16.79;;;8.93;;
61473;SDS011;53694;49.784;30.150;2024-01-30T04:26:40;16.37;;;9.51;;
61473;SDS011;53694;49.784;30.150;2024-01-30T04:27:42;16.59;;;9.71;;
61473;SDS011;53694;49.784;30.150;2024-01-30T04:28:46;18.84;;;9.98;;
61473;SDS011;53694;49.784;30.150;2024-01-30T04:29:48;18.38;;;10.47;;
61473;SDS011;53694;49.784;30.150;2024-01-30T04:30:50;17.91;;;10.89;;
61473;SDS011;53694;49.784;30.150;2024-01-30T04:31:51;15.78;;;9.55;;
61473;SDS011;53694;49.784;30.150;2024-01-30T04:32:53;14.49;;;8.09;;
61473;SDS011;53694;49.784;30.150;2024-01-30T04:33:54;18.16;;;7.71;;
61473;SDS011;53694;49.784;30.150;2024-01-30T04:34:56;12.71;;;7.02;;
61473;SDS011;53694;49.784;30.150;2024-01-30T04:35:57;12.54;;;7.61;;
61473;SDS011;53694;49.784;30.150;2024-01-30T04:36:59;11.09;;;7.03;;
61473;SDS011;53694;49.784;30.150;2024-01-30T04:38:00;12.41;;;6.82;;
61473;SDS011;53694;49.784;30.150;2024-01-30T04:39:02;12.85;;;7.09;;
61473;SDS011;53694;49.784;30.150;2024-01-30T04:40:04;10.97;;;6.79;;
61473;SDS011;53694;49.784;30.150;2024-01-30T04:41:07;12.90;;;7.37;;
61473;SDS011;53694;49.784;30.150;2024-01-30T04:42:09;14.75;;;7.97;;
61473;SDS011;53694;49.784;30.150;2024-01-30T04:43:10;14.54;;;7.66;;
61473;SDS011;53694;49.784;30.150;2024-01-30T04:44:12;13.81;;;8.02;;
61473;SDS011;53694;49.784;30.150;2024-01-30T04:45:13;18.64;;;9.28;;
61473;SDS011;53694;49.784;30.150;2024-01-30T04:46:16;15.62;;;9.20;;
61473;SDS011;53694;49.784;30.150;2024-01-30T04:47:17;16.01;;;9.60;;
61473;SDS011;53694;49.784;30.150;2024-01-30T04:48:19;15.19;;;9.76;;
61473;SDS011;53694;49.784;30.150;2024-01-30T04:49:20;15.50;;;9.79;;
61473;SDS011;53694;49.784;30.150;2024-01-30T04:50:22;13.61;;;9.27;;
61473;SDS011;53694;49.784;30.150;2024-01-30T04:51:24;18.49;;;10.38;;
61473;SDS011;53694;49.784;30.150;2024-01-30T04:52:26;18.44;;;9.56;;
61473;SDS011;53694;49.784;30.150;2024-01-30T04:53:27;14.54;;;7.89;;
61473;SDS011;53694;49.784;30.150;2024-01-30T04:54:30;15.19;;;8.06;;
61473;SDS011;53694;49.784;30.150;2024-01-30T04:55:34;12.19;;;6.85;;
61473;SDS011;53694;49.784;30.150;2024-01-30T04:56:36;13.64;;;7.05;;
61473;SDS011;53694;49.784;30.150;2024-01-30T04:57:38;11.54;;;6.77;;
61473;SDS011;53694;49.784;30.150;2024-01-30T04:58:40;12.76;;;7.41;;
61473;SDS011;53694;49.784;30.150;2024-01-30T04:59:41;12.72;;;6.84;;
61473;SDS011;53694;49.784;30.150;2024-01-30T05:00:43;12.93;;;7.29;;
61473;SDS011;53694;49.784;30.150;2024-01-30T05:01:45;15.06;;;7.66;;
61473;SDS011;53694;49.784;30.150;2024-01-30T05:02:46;12.88;;;7.07;;
61473;SDS011;53694;49.784;30.150;2024-01-30T05:03:47;12.83;;;7.66;;
61473;SDS011;53694;49.784;30.150;2024-01-30T05:04:49;13.24;;;8.36;;
61473;SDS011;53694;49.784;30.150;2024-01-30T05:05:50;15.90;;;8.80;;
61473;SDS011;53694;49.784;30.150;2024-01-30T05:06:52;16.47;;;8.65;;
61473;SDS011;53694;49.784;30.150;2024-01-30T05:07:53;15.29;;;9.23;;
61473;SDS011;53694;49.784;30.150;2024-01-30T05:08:55;17.96;;;10.10;;
61473;SDS011;53694;49.784;30.150;2024-01-30T05:09:56;16.71;;;10.29;;
61473;SDS011;53694;49.784;30.150;2024-01-30T05:11:02;18.51;;;10.08;;
61473;SDS011;53694;49.784;30.150;2024-01-30T05:12:04;17.06;;;10.22;;
61473;SDS011;53694;49.784;30.150;2024-01-30T05:13:06;16.66;;;9.91;;
61473;SDS011;53694;49.784;30.150;2024-01-30T05:14:07;16.95;;;10.25;;
61473;SDS011;53694;49.784;30.150;2024-01-30T05:15:09;15.29;;;8.07;;
61473;SDS011;53694;49.784;30.150;2024-01-30T05:16:11;14.49;;;7.91;;
61473;SDS011;53694;49.784;30.150;2024-01-30T05:17:12;13.47;;;7.39;;
61473;SDS011;53694;49.784;30.150;2024-01-30T05:18:14;16.11;;;7.70;;
61473;SDS011;53694;49.784;30.150;2024-01-30T05:19:16;14.45;;;7.81;;
61473;SDS011;53694;49.784;30.150;2024-01-30T05:20:17;13.17;;;7.35;;
61473;SDS011;53694;49.784;30.150;2024-01-30T05:21:20;13.53;;;8.09;;
61473;SDS011;53694;49.784;30.150;2024-01-30T05:22:22;15.06;;;7.04;;
61473;SDS011;53694;49.784;30.150;2024-01-30T05:23:23;12.92;;;7.79;;
61473;SDS011;53694;49.784;30.150;2024-01-30T05:24:25;14.11;;;8.12;;
61473;SDS011;53694;49.784;30.150;2024-01-30T05:25:28;14.70;;;8.94;;
61473;SDS011;53694;49.784;30.150;2024-01-30T05:26:30;14.32;;;9.07;;
61473;SDS011;53694;49.784;30.150;2024-01-30T05:27:32;15.13;;;8.26;;
61473;SDS011;53694;49.784;30.150;2024-01-30T05:28:34;17.04;;;9.16;;
61473;SDS011;53694;49.784;30.150;2024-01-30T05:29:36;17.19;;;9.81;;
61473;SDS011;53694;49.784;30.150;2024-01-30T05:30:38;16.03;;;9.55;;
61473;SDS011;53694;49.784;30.150;2024-01-30T05:31:39;19.31;;;10.10;;
61473;SDS011;53694;49.784;30.150;2024-01-30T05:32:41;18.51;;;11.09;;
61473;SDS011;53694;49.784;30.150;2024-01-30T05:33:42;18.12;;;10.67;;
61473;SDS011;53694;49.784;30.150;2024-01-30T05:34:44;17.94;;;10.67;;
61473;SDS011;53694;49.784;30.150;2024-01-30T05:35:45;20.59;;;11.52;;
61473;SDS011;53694;49.784;30.150;2024-01-30T05:36:47;19.21;;;10.15;;
61473;SDS011;53694;49.784;30.150;2024-01-30T05:37:48;15.79;;;8.66;;
61473;SDS011;53694;49.784;30.150;2024-01-30T05:38:50;14.52;;;8.68;;
61473;SDS011;53694;49.784;30.150;2024-01-30T05:39:51;13.71;;;8.05;;
61473;SDS011;53694;49.784;30.150;2024-01-30T05:40:53;13.91;;;7.49;;
61473;SDS011;53694;49.784;30.150;2024-01-30T05:41:55;13.87;;;7.46;;
61473;SDS011;53694;49.784;30.150;2024-01-30T05:42:56;14.78;;;7.87;;
61473;SDS011;53694;49.784;30.150;2024-01-30T05:43:58;12.18;;;7.32;;
61473;SDS011;53694;49.784;30.150;2024-01-30T05:45:00;12.85;;;7.58;;
61473;SDS011;53694;49.784;30.150;2024-01-30T05:46:01;15.35;;;8.36;;
61473;SDS011;53694;49.784;30.150;2024-01-30T05:47:03;15.86;;;8.61;;
61473;SDS011;53694;49.784;30.150;2024-01-30T05:48:05;17.33;;;8.98;;
61473;SDS011;53694;49.784;30.150;2024-01-30T05:49:06;18.06;;;9.88;;
61473;SDS011;53694;49.784;30.150;2024-01-30T05:50:09;16.27;;;10.01;;
61473;SDS011;53694;49.784;30.150;2024-01-30T05:51:10;19.90;;;10.61;;
61473;SDS011;53694;49.784;30.150;2024-01-30T05:52:12;21.56;;;11.15;;
61473;SDS011;53694;49.784;30.150;2024-01-30T05:53:14;23.43;;;12.00;;
61473;SDS011;53694;49.784;30.150;2024-01-30T05:54:15;18.53;;;11.16;;
61473;SDS011;53694;49.784;30.150;2024-01-30T05:55:19;19.42;;;11.57;;
61473;SDS011;53694;49.784;30.150;2024-01-30T05:56:21;17.65;;;10.33;;
61473;SDS011;53694;49.784;30.150;2024-01-30T05:57:23;20.78;;;11.86;;
61473;SDS011;53694;49.784;30.150;2024-01-30T05:58:24;20.29;;;11.90;;
61473;SDS011;53694;49.784;30.150;2024-01-30T05:59:26;21.10;;;11.58;;